Check out our new BloomSky Weather System.

Active alerts


No alerts


Thunder radar  blitzortung!


Rain radar more information rain snow radar


Visit our other weather sites:

Template documentation
and downloads

And another site



Weather Underground History page Text

Daily Summary for January 1, 2018 Units:  English    Metric   Both
« Previous Day
Next Day »
Daily Weekly Monthly Yearly Custom
  High: Low: Average:
Temperature: TemperatureF °F 29.5 °F 34.2 °F
Dew Point: DewpointF °F 14.4 °F 20.7 °F
Humidity: Humidity % 39 % 59 %
Wind Speed: WindSpeedMPH mph 0.0 mph 3.3 mph
Wind Gust: WindSpeedGustMPH mph - -
Wind:- - SW
Pressure: PressureIn in 30.53 in -
Precipitation: 0.00 in    
Historical Graphs
 
 
Tabular Data for January 1, 2018
Time Temperature Dew Point Pressure Wind Wind Speed Wind Gust Humidity Rainfall Rate (Hourly)
TemperatureF °F DewpointF °F PressureIn in Calm     Humidity % HourlyPrecipIn in
00:03 38.7 °F 31.8 °F 30.53 in North 4.0 mph 9.0 mph 76 % 0.00 in
00:05 38.5 °F 31.6 °F 30.53 in North 4.0 mph 9.0 mph 76 % 0.00 in
00:09 38.5 °F 31.6 °F 30.53 in North 6.0 mph 9.0 mph 76 % 0.00 in
00:10 38.5 °F 31.6 °F 30.53 in NNW 3.0 mph 11.0 mph 76 % 0.00 in
00:15 38.5 °F 31.6 °F 30.53 in NNW 3.0 mph 11.0 mph 76 % 0.00 in
00:16 38.5 °F 31.6 °F 30.53 in West 4.0 mph 11.0 mph 76 % 0.00 in
00:21 38.5 °F 31.6 °F 30.53 in WNW 4.0 mph 12.0 mph 76 % 0.00 in
00:22 38.5 °F 31.6 °F 30.53 in NW 5.0 mph 12.0 mph 76 % 0.00 in
00:27 38.5 °F 31.8 °F 30.53 in North 3.0 mph 12.0 mph 77 % 0.00 in
00:32 38.3 °F 31.6 °F 30.54 in North 4.0 mph 12.0 mph 77 % 0.00 in
00:37 38.1 °F 31.6 °F 30.54 in NNW 4.0 mph 10.0 mph 77 % 0.00 in
00:42 38.1 °F 31.6 °F 30.53 in SW 2.0 mph 12.0 mph 77 % 0.00 in
00:43 38.1 °F 31.6 °F 30.54 in NNE 5.0 mph 12.0 mph 77 % 0.00 in
00:48 37.9 °F 31.6 °F 30.53 in NW 2.0 mph 12.0 mph 78 % 0.00 in
00:49 37.9 °F 31.6 °F 30.53 in NW 6.0 mph 12.0 mph 78 % 0.00 in
00:54 37.8 °F 31.5 °F 30.53 in NNW 4.0 mph 18.0 mph 78 % 0.00 in
00:55 37.8 °F 31.3 °F 30.53 in NW 4.0 mph 18.0 mph 77 % 0.00 in
01:01 37.8 °F 31.5 °F 30.53 in NNW 4.0 mph 18.0 mph 78 % 0.00 in
01:06 37.8 °F 31.5 °F 30.54 in NNW 3.0 mph 13.0 mph 78 % 0.00 in
01:11 37.6 °F 31.3 °F 30.54 in NW 3.0 mph 12.0 mph 78 % 0.00 in
01:14 37.6 °F 31.3 °F 30.54 in North 6.0 mph 12.0 mph 78 % 0.00 in
01:19 37.4 °F 31.1 °F 30.54 in NNW 2.0 mph 13.0 mph 78 % 0.00 in
01:20 37.2 °F 30.9 °F 30.54 in NW 3.0 mph 13.0 mph 78 % 0.00 in
01:25 37.2 °F 30.9 °F 30.54 in WNW 3.0 mph 13.0 mph 78 % 0.00 in
01:28 37.2 °F 30.9 °F 30.54 in SSE 2.0 mph 13.0 mph 78 % 0.00 in
01:32 37.2 °F 30.9 °F 30.54 in NNW 3.0 mph 9.0 mph 78 % 0.00 in
01:34 37.2 °F 30.9 °F 30.54 in NNW 1.0 mph 9.0 mph 78 % 0.00 in
01:39 37.0 °F 30.7 °F 30.54 in WNW 7.0 mph 9.0 mph 78 % 0.00 in
01:40 37.0 °F 30.7 °F 30.54 in North 7.0 mph 11.0 mph 78 % 0.00 in
01:44 37.0 °F 30.7 °F 30.54 in West 2.0 mph 11.0 mph 78 % 0.00 in
01:48 37.0 °F 31.1 °F 30.54 in NW 7.0 mph 11.0 mph 79 % 0.00 in
01:53 37.0 °F 31.5 °F 30.54 in NNE 7.0 mph 12.0 mph 80 % 0.00 in
01:56 36.9 °F 31.6 °F 30.55 in NNW 3.0 mph 12.0 mph 81 % 0.00 in
02:01 36.7 °F 31.6 °F 30.55 in North 6.0 mph 12.0 mph 82 % 0.00 in
02:04 36.5 °F 31.5 °F 30.55 in NNW 2.0 mph 12.0 mph 82 % 0.00 in
02:09 36.1 °F 31.5 °F 30.56 in NNW 3.0 mph 10.0 mph 83 % 0.00 in
02:14 36.0 °F 31.6 °F 30.56 in North 5.0 mph 10.0 mph 84 % 0.00 in
02:17 36.0 °F 31.6 °F 30.56 in NW 6.0 mph 10.0 mph 84 % 0.00 in
02:22 35.8 °F 31.5 °F 30.56 in NW 5.0 mph 10.0 mph 84 % 0.00 in
02:24 35.8 °F 31.5 °F 30.56 in North 4.0 mph 10.0 mph 84 % 0.00 in
02:25 35.8 °F 31.5 °F 30.56 in NNW 3.0 mph 11.0 mph 84 % 0.00 in
02:30 35.8 °F 31.5 °F 30.56 in NW 3.0 mph 11.0 mph 84 % 0.00 in
02:31 35.8 °F 31.5 °F 30.56 in NW 3.0 mph 11.0 mph 84 % 0.00 in
02:32 35.8 °F 31.5 °F 30.56 in NNW 1.0 mph 11.0 mph 84 % 0.00 in
02:37 35.8 °F 31.5 °F 30.56 in NNW 3.0 mph 11.0 mph 84 % 0.00 in
02:42 35.6 °F 30.9 °F 30.56 in North 2.0 mph 12.0 mph 83 % 0.00 in
02:45 35.6 °F 31.3 °F 30.56 in NNW 3.0 mph 12.0 mph 84 % 0.00 in
02:46 35.6 °F 31.3 °F 30.56 in NE 3.0 mph 12.0 mph 84 % 0.00 in
02:51 35.4 °F 30.7 °F 30.57 in North 4.0 mph 12.0 mph 83 % 0.00 in
02:54 35.4 °F 31.1 °F 30.57 in WNW 4.0 mph 12.0 mph 84 % 0.00 in
02:59 35.4 °F 30.7 °F 30.57 in NNW 5.0 mph 10.0 mph 83 % 0.00 in
03:03 35.2 °F 30.6 °F 30.57 in NNW 7.0 mph 10.0 mph 83 % 0.00 in
03:04 35.2 °F 30.4 °F 30.57 in WNW 1.0 mph 10.0 mph 82 % 0.00 in
03:08 35.2 °F 30.0 °F 30.57 in NNE 6.0 mph 17.0 mph 81 % 0.00 in
03:09 35.2 °F 30.0 °F 30.57 in North 2.0 mph 17.0 mph 81 % 0.00 in
03:14 35.2 °F 30.0 °F 30.57 in NW 2.0 mph 17.0 mph 81 % 0.00 in
03:19 35.2 °F 30.0 °F 30.57 in NNE 4.0 mph 17.0 mph 81 % 0.00 in
03:20 35.2 °F 30.0 °F 30.57 in North 5.0 mph 17.0 mph 81 % 0.00 in
03:25 35.2 °F 29.7 °F 30.58 in NNW 5.0 mph 11.0 mph 80 % 0.00 in
03:26 35.2 °F 29.7 °F 30.58 in NW 2.0 mph 9.0 mph 80 % 0.00 in
03:30 35.1 °F 29.5 °F 30.58 in NNW 2.0 mph 11.0 mph 80 % 0.00 in
03:33 35.1 °F 29.5 °F 30.58 in NNW 6.0 mph 11.0 mph 80 % 0.00 in
03:38 34.9 °F 29.7 °F 30.58 in NNW 7.0 mph 11.0 mph 81 % 0.00 in
03:39 34.9 °F 29.7 °F 30.58 in WSW 2.0 mph 11.0 mph 81 % 0.00 in
03:42 34.9 °F 29.7 °F 30.58 in NNW 6.0 mph 11.0 mph 81 % 0.00 in
03:44 34.9 °F 29.7 °F 30.58 in NNE 6.0 mph 11.0 mph 81 % 0.00 in
03:47 34.5 °F 29.3 °F 30.59 in WNW 3.0 mph 11.0 mph 81 % 0.00 in
03:50 34.5 °F 29.7 °F 30.59 in North 7.0 mph 11.0 mph 82 % 0.00 in
03:55 34.3 °F 29.5 °F 30.59 in NE 3.0 mph 13.0 mph 82 % 0.00 in
03:56 34.3 °F 29.5 °F 30.59 in NW 4.0 mph 13.0 mph 82 % 0.00 in
03:57 34.3 °F 29.5 °F 30.59 in NNW 3.0 mph 13.0 mph 82 % 0.00 in
04:01 34.3 °F 29.1 °F 30.59 in NW 4.0 mph 13.0 mph 81 % 0.00 in
04:02 34.3 °F 29.1 °F 30.59 in West 4.0 mph 13.0 mph 81 % 0.00 in
04:07 34.2 °F 28.9 °F 30.60 in WNW 5.0 mph 15.0 mph 81 % 0.00 in
04:12 34.2 °F 28.9 °F 30.60 in NW 5.0 mph 15.0 mph 81 % 0.00 in
04:17 34.0 °F 28.2 °F 30.60 in NW 5.0 mph 15.0 mph 79 % 0.00 in
04:22 34.0 °F 28.2 °F 30.60 in NNE 1.0 mph 12.0 mph 79 % 0.00 in
04:27 33.6 °F 27.1 °F 30.60 in NNW 6.0 mph 12.0 mph 77 % 0.00 in
04:31 33.6 °F 27.1 °F 30.60 in NNE 3.0 mph 17.0 mph 77 % 0.00 in
04:36 33.6 °F 26.8 °F 30.60 in NNE 6.0 mph 17.0 mph 76 % 0.00 in
04:37 33.6 °F 26.8 °F 30.60 in NNW 1.0 mph 17.0 mph 76 % 0.00 in
04:38 33.6 °F 26.8 °F 30.60 in NNW 8.0 mph 17.0 mph 76 % 0.00 in
04:43 33.4 °F 26.4 °F 30.60 in NNW 4.0 mph 17.0 mph 75 % 0.00 in
04:48 33.4 °F 26.4 °F 30.60 in East 1.0 mph 16.0 mph 75 % 0.00 in
04:49 33.4 °F 26.4 °F 30.60 in NNE 4.0 mph 16.0 mph 75 % 0.00 in
04:50 33.4 °F 26.4 °F 30.60 in NNW 4.0 mph 16.0 mph 75 % 0.00 in
04:54 33.3 °F 25.9 °F 30.60 in NNW 3.0 mph 16.0 mph 74 % 0.00 in
04:57 33.3 °F 25.5 °F 30.60 in North 3.0 mph 16.0 mph 73 % 0.00 in
05:02 33.1 °F 25.3 °F 30.61 in North 2.0 mph 14.0 mph 73 % 0.00 in
05:03 32.9 °F 25.2 °F 30.61 in NW 7.0 mph 14.0 mph 73 % 0.00 in
05:08 32.7 °F 24.6 °F 30.61 in WNW 5.0 mph 14.0 mph 72 % 0.00 in
05:09 32.7 °F 24.6 °F 30.61 in North 2.0 mph 14.0 mph 72 % 0.00 in
05:14 32.5 °F 24.3 °F 30.61 in North 3.0 mph 14.0 mph 71 % 0.00 in
05:16 32.5 °F 24.3 °F 30.61 in North 3.0 mph 11.0 mph 71 % 0.00 in
05:21 32.4 °F 24.1 °F 30.61 in WNW 1.0 mph 12.0 mph 71 % 0.00 in
05:26 32.2 °F 23.9 °F 30.61 in North 2.0 mph 12.0 mph 71 % 0.00 in
05:29 32.2 °F 23.5 °F 30.61 in NW 2.0 mph 12.0 mph 70 % 0.00 in
05:33 32.2 °F 23.5 °F 30.61 in NNW 1.0 mph 12.0 mph 70 % 0.00 in
05:34 32.2 °F 23.5 °F 30.61 in NNW 2.0 mph 12.0 mph 70 % 0.00 in
05:39 32.0 °F 23.4 °F 30.62 in North 6.0 mph 13.0 mph 70 % 0.00 in
05:40 31.8 °F 23.2 °F 30.62 in WNW 3.0 mph 14.0 mph 70 % 0.00 in
05:45 31.8 °F 23.2 °F 30.62 in NNW 10.0 mph 14.0 mph 70 % 0.00 in
05:46 31.8 °F 23.2 °F 30.62 in NW 2.0 mph 14.0 mph 70 % 0.00 in
05:47 31.6 °F 23.0 °F 30.63 in NW 2.0 mph 14.0 mph 70 % 0.00 in
05:52 31.6 °F 23.0 °F 30.62 in NNW 1.0 mph 14.0 mph 70 % 0.00 in
05:53 31.6 °F 23.4 °F 30.62 in North 4.0 mph 14.0 mph 71 % 0.00 in
05:58 31.5 °F 22.8 °F 30.62 in NW 2.0 mph 11.0 mph 70 % 0.00 in
06:03 31.5 °F 23.2 °F 30.63 in NE 7.0 mph 13.0 mph 71 % 0.00 in
06:05 31.3 °F 22.6 °F 30.62 in North 5.0 mph 13.0 mph 70 % 0.00 in
06:10 31.3 °F 23.0 °F 30.63 in North 2.0 mph 13.0 mph 71 % 0.00 in
06:11 31.1 °F 22.8 °F 30.63 in NW 3.0 mph 13.0 mph 71 % 0.00 in
06:16 30.9 °F 22.6 °F 30.63 in WNW 2.0 mph 13.0 mph 71 % 0.00 in
06:21 30.7 °F 22.5 °F 30.64 in NNE 1.0 mph 13.0 mph 71 % 0.00 in
06:22 30.7 °F 22.5 °F 30.64 in NNW 6.0 mph 13.0 mph 71 % 0.00 in
06:27 30.7 °F 22.5 °F 30.64 in North 10.0 mph 13.0 mph 71 % 0.00 in
06:29 30.6 °F 22.3 °F 30.64 in NE 3.0 mph 13.0 mph 71 % 0.00 in
06:33 30.6 °F 22.3 °F 30.64 in North 4.0 mph 13.0 mph 71 % 0.00 in
06:37 30.6 °F 22.3 °F 30.64 in NNE 3.0 mph 13.0 mph 71 % 0.00 in
06:42 30.6 °F 22.6 °F 30.64 in NW 3.0 mph 13.0 mph 72 % 0.00 in
06:43 30.6 °F 22.6 °F 30.65 in NNW 1.0 mph 13.0 mph 72 % 0.00 in
06:46 30.6 °F 22.6 °F 30.65 in North 4.0 mph 11.0 mph 72 % 0.00 in
06:51 30.6 °F 22.3 °F 30.65 in NNW 2.0 mph 11.0 mph 71 % 0.00 in
06:52 30.4 °F 22.1 °F 30.65 in North 6.0 mph 11.0 mph 71 % 0.00 in
06:55 30.4 °F 22.1 °F 30.65 in Calm   11.0 mph 71 % 0.00 in
07:00 30.0 °F 21.4 °F 30.65 in NNW 5.0 mph 12.0 mph 70 % 0.00 in
07:01 30.0 °F 21.4 °F 30.65 in North 3.0 mph 12.0 mph 70 % 0.00 in
07:06 29.8 °F 21.2 °F 30.66 in NNW 5.0 mph 12.0 mph 70 % 0.00 in
07:09 29.8 °F 21.2 °F 30.65 in North 12.0 mph 12.0 mph 70 % 0.00 in
07:10 29.8 °F 21.2 °F 30.65 in NW 6.0 mph 13.0 mph 70 % 0.00 in
07:15 29.7 °F 21.0 °F 30.65 in NNW 5.0 mph 13.0 mph 70 % 0.00 in
07:20 29.7 °F 21.0 °F 30.65 in North 5.0 mph 13.0 mph 70 % 0.00 in
07:25 29.7 °F 20.7 °F 30.66 in North 2.0 mph 13.0 mph 69 % 0.00 in
07:29 29.7 °F 20.7 °F 30.66 in SE 2.0 mph 13.0 mph 69 % 0.00 in
07:34 29.7 °F 20.7 °F 30.66 in NE 6.0 mph 13.0 mph 69 % 0.00 in
07:37 29.5 °F 20.3 °F 30.66 in NE 10.0 mph 12.0 mph 68 % 0.00 in
07:42 29.5 °F 20.3 °F 30.67 in WNW 3.0 mph 10.0 mph 68 % 0.00 in
07:44 29.5 °F 19.9 °F 30.67 in NE 9.0 mph 10.0 mph 67 % 0.00 in
07:49 29.5 °F 19.9 °F 30.68 in NNE 3.0 mph 13.0 mph 67 % 0.00 in
07:51 29.5 °F 19.9 °F 30.68 in WNW 1.0 mph 13.0 mph 67 % 0.00 in
07:53 29.5 °F 19.9 °F 30.67 in Calm   13.0 mph 67 % 0.00 in
07:58 29.5 °F 19.9 °F 30.68 in NNE 1.0 mph 13.0 mph 67 % 0.00 in
08:00 29.5 °F 19.9 °F 30.68 in WNW 3.0 mph 13.0 mph 67 % 0.00 in
08:01 29.5 °F 19.6 °F 30.68 in NNW 3.0 mph 13.0 mph 66 % 0.00 in
08:06 29.5 °F 19.6 °F 30.68 in North 1.0 mph 11.0 mph 66 % 0.00 in
08:09 29.5 °F 19.6 °F 30.68 in North 5.0 mph 11.0 mph 66 % 0.00 in
08:12 29.7 °F 19.8 °F 30.68 in NNE 9.0 mph 11.0 mph 66 % 0.00 in
08:17 29.7 °F 19.8 °F 30.68 in ENE 4.0 mph 11.0 mph 66 % 0.00 in
08:18 29.7 °F 19.8 °F 30.68 in NE 1.0 mph 11.0 mph 66 % 0.00 in
08:19 29.7 °F 19.8 °F 30.68 in North 3.0 mph 11.0 mph 66 % 0.00 in
08:24 29.7 °F 19.8 °F 30.69 in NNW 7.0 mph 11.0 mph 66 % 0.00 in
08:26 29.7 °F 19.4 °F 30.69 in NNE 14.0 mph 14.0 mph 65 % 0.00 in
08:28 29.7 °F 19.4 °F 30.69 in NNW 10.0 mph 13.0 mph 65 % 0.00 in
08:33 29.8 °F 19.9 °F 30.69 in NW 3.0 mph 14.0 mph 66 % 0.00 in
08:34 29.8 °F 19.9 °F 30.70 in NW 4.0 mph 14.0 mph 66 % 0.00 in
08:39 29.8 °F 19.6 °F 30.69 in NNW 3.0 mph 14.0 mph 65 % 0.00 in
08:40 29.8 °F 19.6 °F 30.69 in NW 3.0 mph 14.0 mph 65 % 0.00 in
08:41 29.8 °F 19.6 °F 30.69 in NNW 8.0 mph 14.0 mph 65 % 0.00 in
08:46 29.8 °F 19.2 °F 30.69 in East 2.0 mph 14.0 mph 64 % 0.00 in
08:51 30.0 °F 19.4 °F 30.69 in NE 5.0 mph 14.0 mph 64 % 0.00 in
08:52 30.0 °F 19.4 °F 30.69 in NE 3.0 mph 14.0 mph 64 % 0.00 in
08:57 30.2 °F 19.9 °F 30.69 in NNW 5.0 mph 14.0 mph 65 % 0.00 in
09:02 30.4 °F 19.6 °F 30.69 in NW 3.0 mph 13.0 mph 64 % 0.00 in
09:07 30.7 °F 19.6 °F 30.69 in NNW 9.0 mph 13.0 mph 63 % 0.00 in
09:12 30.7 °F 19.9 °F 30.69 in Calm   13.0 mph 64 % 0.00 in
09:15 30.9 °F 20.1 °F 30.69 in NNE 1.0 mph 13.0 mph 64 % 0.00 in
09:20 31.3 °F 20.1 °F 30.69 in NNW 4.0 mph 13.0 mph 63 % 0.00 in
09:25 31.3 °F 19.8 °F 30.70 in North 11.0 mph 12.0 mph 62 % 0.00 in
09:27 31.1 °F 19.2 °F 30.70 in NNE 3.0 mph 12.0 mph 61 % 0.00 in
09:32 31.3 °F 19.8 °F 30.70 in North 4.0 mph 12.0 mph 62 % 0.00 in
09:37 31.3 °F 19.8 °F 30.70 in NNE 5.0 mph 11.0 mph 62 % 0.00 in
09:38 31.3 °F 19.8 °F 30.70 in NE 2.0 mph 11.0 mph 62 % 0.00 in
09:43 31.5 °F 20.3 °F 30.70 in NNW 3.0 mph 11.0 mph 63 % 0.00 in
09:45 31.6 °F 20.1 °F 30.70 in NNW 4.0 mph 11.0 mph 62 % 0.00 in
09:46 31.6 °F 20.5 °F 30.70 in NNW 4.0 mph 11.0 mph 63 % 0.00 in
09:50 31.6 °F 19.8 °F 30.70 in WNW 1.0 mph 13.0 mph 61 % 0.00 in
09:54 31.6 °F 19.8 °F 30.71 in ENE 10.0 mph 13.0 mph 61 % 0.00 in
09:59 31.5 °F 19.2 °F 30.71 in North 6.0 mph 14.0 mph 60 % 0.00 in
10:04 31.6 °F 19.4 °F 30.71 in NNW 4.0 mph 16.0 mph 60 % 0.00 in
10:09 31.6 °F 19.0 °F 30.71 in NNW 3.0 mph 16.0 mph 59 % 0.00 in
10:10 31.6 °F 19.0 °F 30.71 in NNW 7.0 mph 16.0 mph 59 % 0.00 in
10:15 31.8 °F 19.6 °F 30.71 in NNE 3.0 mph 16.0 mph 60 % 0.00 in
10:19 32.0 °F 18.9 °F 30.70 in WNW 8.0 mph 15.0 mph 58 % 0.00 in
10:24 32.4 °F 19.2 °F 30.70 in North 6.0 mph 15.0 mph 58 % 0.00 in
10:29 32.7 °F 18.7 °F 30.71 in NW 6.0 mph 15.0 mph 56 % 0.00 in
10:30 32.7 °F 18.7 °F 30.71 in NNW 12.0 mph 15.0 mph 56 % 0.00 in
10:31 32.9 °F 18.5 °F 30.71 in North 6.0 mph 15.0 mph 55 % 0.00 in
10:36 33.3 °F 19.2 °F 30.71 in North 4.0 mph 15.0 mph 56 % 0.00 in
10:37 33.3 °F 19.2 °F 30.70 in NNW 3.0 mph 15.0 mph 56 % 0.00 in
10:42 33.4 °F 19.4 °F 30.70 in NNE 3.0 mph 15.0 mph 56 % 0.00 in
10:44 33.4 °F 19.4 °F 30.70 in NNW 5.0 mph 15.0 mph 56 % 0.00 in
10:45 33.4 °F 19.4 °F 30.70 in NW 4.0 mph 15.0 mph 56 % 0.00 in
10:50 33.3 °F 18.9 °F 30.71 in North 5.0 mph 15.0 mph 55 % 0.00 in
10:52 33.3 °F 19.2 °F 30.70 in West 4.0 mph 13.0 mph 56 % 0.00 in
10:55 33.3 °F 18.9 °F 30.70 in NW 6.0 mph 12.0 mph 55 % 0.00 in
10:59 33.3 °F 18.9 °F 30.70 in NNW 4.0 mph 12.0 mph 55 % 0.00 in
11:01 33.3 °F 18.9 °F 30.70 in North 4.0 mph 12.0 mph 55 % 0.00 in
11:05 33.3 °F 18.9 °F 30.69 in NW 4.0 mph 12.0 mph 55 % 0.00 in
11:10 33.3 °F 18.9 °F 30.69 in NNW 5.0 mph 12.0 mph 55 % 0.00 in
11:11 33.3 °F 19.2 °F 30.70 in NNW 2.0 mph 12.0 mph 56 % 0.00 in
11:16 33.6 °F 19.9 °F 30.70 in NW 5.0 mph 10.0 mph 57 % 0.00 in
11:17 33.6 °F 19.6 °F 30.70 in NNW 2.0 mph 10.0 mph 56 % 0.00 in
11:18 33.6 °F 19.6 °F 30.69 in NW 4.0 mph 10.0 mph 56 % 0.00 in
11:23 33.8 °F 18.5 °F 30.69 in NNW 4.0 mph 12.0 mph 53 % 0.00 in
11:27 34.0 °F 19.0 °F 30.70 in North 5.0 mph 14.0 mph 54 % 0.00 in
11:28 34.0 °F 19.0 °F 30.70 in NNE 8.0 mph 14.0 mph 54 % 0.00 in
11:33 34.0 °F 19.0 °F 30.69 in NW 7.0 mph 14.0 mph 54 % 0.00 in
11:36 33.8 °F 19.4 °F 30.69 in NW 4.0 mph 14.0 mph 55 % 0.00 in
11:37 33.8 °F 19.4 °F 30.69 in North 1.0 mph 14.0 mph 55 % 0.00 in
11:42 34.2 °F 18.3 °F 30.70 in NW 4.0 mph 12.0 mph 52 % 0.00 in
11:47 33.6 °F 17.8 °F 30.69 in WNW 5.0 mph 14.0 mph 52 % 0.00 in
11:50 33.4 °F 17.8 °F 30.69 in North 9.0 mph 14.0 mph 52 % 0.00 in
11:53 33.3 °F 18.0 °F 30.69 in NNE 4.0 mph 14.0 mph 53 % 0.00 in
11:56 33.1 °F 18.3 °F 30.69 in NE 1.0 mph 14.0 mph 54 % 0.00 in
12:00 33.4 °F 18.1 °F 30.68 in NE 1.0 mph 13.0 mph 53 % 0.00 in
12:04 33.6 °F 18.3 °F 30.68 in NNE 2.0 mph 13.0 mph 53 % 0.00 in
12:09 34.2 °F 18.3 °F 30.67 in NNW 5.0 mph 13.0 mph 52 % 0.00 in
12:13 34.5 °F 19.2 °F 30.67 in NNW 2.0 mph 11.0 mph 53 % 0.00 in
12:18 34.7 °F 18.5 °F 30.67 in NW 3.0 mph 11.0 mph 51 % 0.00 in
12:21 34.9 °F 18.1 °F 30.67 in NW 3.0 mph 11.0 mph 50 % 0.00 in
12:23 35.1 °F 18.3 °F 30.67 in NNE 4.0 mph 11.0 mph 50 % 0.00 in
12:27 35.2 °F 18.0 °F 30.66 in NNE 6.0 mph 11.0 mph 49 % 0.00 in
12:32 35.6 °F 17.8 °F 30.66 in ENE 9.0 mph 11.0 mph 48 % 0.00 in
12:34 35.4 °F 17.6 °F 30.66 in West 3.0 mph 11.0 mph 48 % 0.00 in
12:38 35.8 °F 18.5 °F 30.66 in NW 7.0 mph 11.0 mph 49 % 0.00 in
12:39 35.8 °F 18.5 °F 30.66 in NW 4.0 mph 11.0 mph 49 % 0.00 in
12:44 36.1 °F 18.3 °F 30.65 in NW 4.0 mph 9.0 mph 48 % 0.00 in
12:49 36.0 °F 17.6 °F 30.64 in ENE 4.0 mph 12.0 mph 47 % 0.00 in
12:51 36.3 °F 18.0 °F 30.65 in Calm   12.0 mph 47 % 0.00 in
12:54 36.7 °F 17.8 °F 30.64 in West 2.0 mph 12.0 mph 46 % 0.00 in
12:57 36.7 °F 17.8 °F 30.64 in NE 6.0 mph 12.0 mph 46 % 0.00 in
13:02 37.0 °F 17.1 °F 30.64 in NNW 4.0 mph 12.0 mph 44 % 0.00 in
13:03 37.0 °F 17.1 °F 30.64 in NNW 1.0 mph 12.0 mph 44 % 0.00 in
13:06 37.2 °F 17.8 °F 30.63 in NNE 4.0 mph 13.0 mph 45 % 0.00 in
13:08 37.2 °F 17.8 °F 30.63 in NNW 3.0 mph 13.0 mph 45 % 0.00 in
13:13 37.6 °F 18.7 °F 30.62 in NNE 3.0 mph 13.0 mph 46 % 0.00 in
13:15 37.8 °F 18.3 °F 30.62 in NNW 3.0 mph 13.0 mph 45 % 0.00 in
13:17 37.8 °F 18.3 °F 30.63 in NW 1.0 mph 13.0 mph 45 % 0.00 in
13:21 38.1 °F 19.2 °F 30.62 in Calm   11.0 mph 46 % 0.00 in
13:22 38.3 °F 18.9 °F 30.62 in South 2.0 mph 11.0 mph 45 % 0.00 in
13:27 38.5 °F 18.5 °F 30.62 in WSW 2.0 mph 11.0 mph 44 % 0.00 in
13:32 38.1 °F 17.1 °F 30.62 in NNW 3.0 mph 12.0 mph 42 % 0.00 in
13:34 37.9 °F 17.4 °F 30.62 in WNW 8.0 mph 12.0 mph 43 % 0.00 in
13:39 37.6 °F 17.1 °F 30.62 in NNW 5.0 mph 13.0 mph 43 % 0.00 in
13:40 37.6 °F 17.1 °F 30.62 in NNW 5.0 mph 13.0 mph 43 % 0.00 in
13:42 37.2 °F 16.7 °F 30.62 in NNW 4.0 mph 13.0 mph 43 % 0.00 in
13:47 37.2 °F 17.2 °F 30.62 in NE 3.0 mph 13.0 mph 44 % 0.00 in
13:49 37.6 °F 17.6 °F 30.62 in North 2.0 mph 13.0 mph 44 % 0.00 in
13:54 38.1 °F 18.7 °F 30.61 in NW 5.0 mph 12.0 mph 45 % 0.00 in
13:58 38.8 °F 18.9 °F 30.61 in East 3.0 mph 12.0 mph 44 % 0.00 in
14:01 38.8 °F 17.8 °F 30.61 in NNW 3.0 mph 10.0 mph 42 % 0.00 in
14:06 39.4 °F 18.1 °F 30.61 in ENE 4.0 mph 11.0 mph 42 % 0.00 in
14:09 39.4 °F 17.6 °F 30.61 in North 4.0 mph 11.0 mph 41 % 0.00 in
14:13 39.4 °F 18.7 °F 30.61 in WNW 2.0 mph 11.0 mph 43 % 0.00 in
14:15 39.4 °F 18.7 °F 30.61 in NNW 2.0 mph 11.0 mph 43 % 0.00 in
14:20 39.4 °F 18.1 °F 30.61 in NNE 5.0 mph 11.0 mph 42 % 0.00 in
14:26 39.6 °F 17.8 °F 30.60 in North 3.0 mph 11.0 mph 41 % 0.00 in
14:30 39.7 °F 18.5 °F 30.60 in NW 3.0 mph 11.0 mph 42 % 0.00 in
14:31 39.7 °F 18.5 °F 30.61 in NNW 5.0 mph 11.0 mph 42 % 0.00 in
14:36 39.9 °F 18.7 °F 30.61 in West 4.0 mph 11.0 mph 42 % 0.00 in
14:37 39.7 °F 18.5 °F 30.61 in NNW 4.0 mph 11.0 mph 42 % 0.00 in
14:42 39.7 °F 19.0 °F 30.61 in Calm   11.0 mph 43 % 0.00 in
14:44 39.9 °F 19.2 °F 30.60 in NW 6.0 mph 11.0 mph 43 % 0.00 in
14:49 40.1 °F 18.9 °F 30.60 in NW 7.0 mph 10.0 mph 42 % 0.00 in
14:50 40.1 °F 18.3 °F 30.60 in NW 7.0 mph 12.0 mph 41 % 0.00 in
14:55 40.1 °F 18.3 °F 30.60 in North 6.0 mph 12.0 mph 41 % 0.00 in
15:00 39.9 °F 18.1 °F 30.60 in NW 2.0 mph 12.0 mph 41 % 0.00 in
15:01 39.9 °F 18.1 °F 30.60 in North 5.0 mph 12.0 mph 41 % 0.00 in
15:06 40.1 °F 17.8 °F 30.60 in North 10.0 mph 11.0 mph 40 % 0.00 in
15:07 39.9 °F 17.6 °F 30.60 in NNW 5.0 mph 11.0 mph 40 % 0.00 in
15:12 39.9 °F 17.6 °F 30.59 in North 5.0 mph 14.0 mph 40 % 0.00 in
15:14 39.9 °F 17.6 °F 30.59 in NW 2.0 mph 14.0 mph 40 % 0.00 in
15:15 39.9 °F 18.1 °F 30.59 in NW 4.0 mph 14.0 mph 41 % 0.00 in
15:20 39.7 °F 17.4 °F 30.59 in NW 4.0 mph 14.0 mph 40 % 0.00 in
15:21 39.7 °F 17.4 °F 30.59 in NNW 6.0 mph 14.0 mph 40 % 0.00 in
15:26 39.6 °F 17.2 °F 30.59 in NW 2.0 mph 11.0 mph 40 % 0.00 in
15:27 39.6 °F 17.2 °F 30.59 in NNW 2.0 mph 11.0 mph 40 % 0.00 in
15:32 39.6 °F 17.2 °F 30.60 in WNW 2.0 mph 11.0 mph 40 % 0.00 in
15:33 39.7 °F 18.0 °F 30.60 in NNW 3.0 mph 11.0 mph 41 % 0.00 in
15:34 39.7 °F 17.4 °F 30.60 in NNW 4.0 mph 11.0 mph 40 % 0.00 in
15:39 40.3 °F 17.2 °F 30.60 in NW 3.0 mph 11.0 mph 39 % 0.00 in
15:40 40.3 °F 18.0 °F 30.59 in WSW 2.0 mph 10.0 mph 40 % 0.00 in
15:45 40.3 °F 18.0 °F 30.60 in NW 3.0 mph 9.0 mph 40 % 0.00 in
15:46 40.3 °F 18.0 °F 30.60 in NNW 4.0 mph 9.0 mph 40 % 0.00 in
15:50 39.7 °F 16.9 °F 30.60 in NNW 9.0 mph 11.0 mph 39 % 0.00 in
15:53 39.4 °F 16.5 °F 30.60 in North 6.0 mph 11.0 mph 39 % 0.00 in
15:58 39.0 °F 16.7 °F 30.60 in NNW 2.0 mph 11.0 mph 40 % 0.00 in
16:03 39.0 °F 16.2 °F 30.60 in NW 5.0 mph 11.0 mph 39 % 0.00 in
16:05 38.8 °F 16.5 °F 30.60 in WNW 1.0 mph 11.0 mph 40 % 0.00 in
16:09 38.7 °F 16.3 °F 30.60 in NW 3.0 mph 11.0 mph 40 % 0.00 in
16:10 38.7 °F 16.3 °F 30.60 in NNW 2.0 mph 8.0 mph 40 % 0.00 in
16:16 38.5 °F 16.9 °F 30.60 in NW 6.0 mph 7.0 mph 41 % 0.00 in
16:17 38.5 °F 16.9 °F 30.60 in NW 2.0 mph 7.0 mph 41 % 0.00 in
16:23 38.5 °F 16.9 °F 30.60 in North 5.0 mph 7.0 mph 41 % 0.00 in
16:26 38.5 °F 17.4 °F 30.60 in NNW 4.0 mph 7.0 mph 42 % 0.00 in
16:30 38.5 °F 16.9 °F 30.60 in NNW 2.0 mph 7.0 mph 41 % 0.00 in
16:33 38.5 °F 16.9 °F 30.60 in NNW 2.0 mph 7.0 mph 41 % 0.00 in
16:35 38.5 °F 16.9 °F 30.60 in North 3.0 mph 7.0 mph 41 % 0.00 in
16:40 38.5 °F 17.4 °F 30.60 in NW 4.0 mph 8.0 mph 42 % 0.00 in
16:41 38.5 °F 17.4 °F 30.60 in NW 2.0 mph 8.0 mph 42 % 0.00 in
16:46 38.1 °F 17.1 °F 30.60 in North 4.0 mph 8.0 mph 42 % 0.00 in
16:51 37.9 °F 16.9 °F 30.60 in NNW 7.0 mph 8.0 mph 42 % 0.00 in
16:53 37.9 °F 16.9 °F 30.60 in NNW 1.0 mph 8.0 mph 42 % 0.00 in
16:58 37.8 °F 16.7 °F 30.60 in Calm   8.0 mph 42 % 0.00 in
16:59 37.6 °F 16.5 °F 30.60 in North 3.0 mph 8.0 mph 42 % 0.00 in
17:03 37.6 °F 16.5 °F 30.60 in NW 1.0 mph 7.0 mph 42 % 0.00 in
17:08 37.6 °F 16.5 °F 30.60 in NNW 1.0 mph 7.0 mph 42 % 0.00 in
17:09 37.6 °F 16.5 °F 30.60 in NNW 2.0 mph 7.0 mph 42 % 0.00 in
17:14 37.2 °F 16.2 °F 30.60 in NNW 3.0 mph 7.0 mph 42 % 0.00 in
17:17 37.2 °F 16.2 °F 30.60 in NW 1.0 mph 7.0 mph 42 % 0.00 in
17:20 37.2 °F 16.7 °F 30.60 in Calm   7.0 mph 43 % 0.00 in
17:25 37.0 °F 16.7 °F 30.60 in NNE 2.0 mph 5.0 mph 43 % 0.00 in
17:27 37.0 °F 17.1 °F 30.60 in North 4.0 mph 5.0 mph 44 % 0.00 in
17:32 36.9 °F 17.1 °F 30.60 in Calm   5.0 mph 44 % 0.00 in
17:34 36.9 °F 17.1 °F 30.61 in Calm   5.0 mph 44 % 0.00 in
17:35 36.9 °F 17.1 °F 30.61 in ENE 2.0 mph 6.0 mph 44 % 0.00 in
17:40 36.7 °F 17.4 °F 30.61 in NNW 1.0 mph 6.0 mph 45 % 0.00 in
17:41 36.5 °F 17.2 °F 30.60 in NNE 1.0 mph 6.0 mph 45 % 0.00 in
17:45 36.3 °F 17.6 °F 30.60 in NW 3.0 mph 6.0 mph 46 % 0.00 in
17:47 36.3 °F 17.6 °F 30.60 in ENE 1.0 mph 6.0 mph 46 % 0.00 in
17:48 36.3 °F 17.6 °F 30.60 in North 2.0 mph 6.0 mph 46 % 0.00 in
17:53 36.1 °F 17.4 °F 30.60 in North 4.0 mph 6.0 mph 46 % 0.00 in
17:58 36.0 °F 16.7 °F 30.60 in Calm   7.0 mph 45 % 0.00 in
17:59 36.0 °F 17.2 °F 30.60 in Calm   7.0 mph 46 % 0.00 in
18:04 35.8 °F 17.1 °F 30.60 in NNE 1.0 mph 7.0 mph 46 % 0.00 in
18:07 35.8 °F 16.5 °F 30.60 in NNW 2.0 mph 7.0 mph 45 % 0.00 in
18:12 35.4 °F 16.7 °F 30.61 in Calm   7.0 mph 46 % 0.00 in
18:17 35.2 °F 16.5 °F 30.60 in Calm   7.0 mph 46 % 0.00 in
18:20 35.1 °F 16.3 °F 30.60 in NNE 1.0 mph 5.0 mph 46 % 0.00 in
18:21 35.1 °F 16.3 °F 30.60 in East 2.0 mph 5.0 mph 46 % 0.00 in
18:26 34.9 °F 16.2 °F 30.60 in NNW 2.0 mph 5.0 mph 46 % 0.00 in
18:29 34.9 °F 16.2 °F 30.60 in NNW 3.0 mph 5.0 mph 46 % 0.00 in
18:31 34.9 °F 16.2 °F 30.60 in North 2.0 mph 9.0 mph 46 % 0.00 in
18:35 34.7 °F 16.0 °F 30.60 in North 5.0 mph 9.0 mph 46 % 0.00 in
18:40 34.5 °F 15.8 °F 30.60 in NW 4.0 mph 9.0 mph 46 % 0.00 in
18:45 34.3 °F 16.2 °F 30.60 in NNW 2.0 mph 8.0 mph 47 % 0.00 in
18:48 34.2 °F 15.6 °F 30.60 in North 2.0 mph 8.0 mph 46 % 0.00 in
18:53 34.2 °F 15.6 °F 30.60 in NW 4.0 mph 8.0 mph 46 % 0.00 in
18:58 34.0 °F 15.4 °F 30.60 in NNE 3.0 mph 8.0 mph 46 % 0.00 in
19:01 34.0 °F 15.4 °F 30.60 in North 1.0 mph 8.0 mph 46 % 0.00 in
19:06 34.0 °F 15.4 °F 30.60 in NNE 1.0 mph 9.0 mph 46 % 0.00 in
19:07 34.0 °F 15.4 °F 30.60 in NW 1.0 mph 9.0 mph 46 % 0.00 in
19:12 33.8 °F 15.6 °F 30.60 in North 1.0 mph 9.0 mph 47 % 0.00 in
19:17 33.6 °F 15.6 °F 30.61 in NNW 2.0 mph 9.0 mph 47 % 0.00 in
19:22 33.6 °F 15.6 °F 30.61 in NNW 2.0 mph 8.0 mph 47 % 0.00 in
19:23 33.6 °F 15.6 °F 30.61 in WNW 2.0 mph 8.0 mph 47 % 0.00 in
19:26 33.4 °F 15.4 °F 30.61 in NE 2.0 mph 6.0 mph 47 % 0.00 in
19:29 33.4 °F 15.4 °F 30.61 in NNW 1.0 mph 6.0 mph 47 % 0.00 in
19:32 33.4 °F 15.8 °F 30.61 in NNE 3.0 mph 6.0 mph 48 % 0.00 in
19:37 33.4 °F 15.8 °F 30.61 in NNE 2.0 mph 8.0 mph 48 % 0.00 in
19:39 33.3 °F 15.6 °F 30.61 in NE 1.0 mph 8.0 mph 48 % 0.00 in
19:42 33.3 °F 15.6 °F 30.61 in North 1.0 mph 8.0 mph 48 % 0.00 in
19:47 33.3 °F 16.2 °F 30.62 in NNW 2.0 mph 8.0 mph 49 % 0.00 in
19:48 33.3 °F 16.2 °F 30.62 in Calm   8.0 mph 49 % 0.00 in
19:53 33.1 °F 16.0 °F 30.62 in Calm   6.0 mph 49 % 0.00 in
19:54 33.1 °F 16.0 °F 30.62 in NW 2.0 mph 6.0 mph 49 % 0.00 in
19:59 33.1 °F 16.0 °F 30.63 in NNW 4.0 mph 6.0 mph 49 % 0.00 in
20:00 32.9 °F 15.8 °F 30.63 in WNW 1.0 mph 7.0 mph 49 % 0.00 in
20:01 32.9 °F 16.3 °F 30.63 in NNE 1.0 mph 7.0 mph 50 % 0.00 in
20:06 32.9 °F 16.3 °F 30.63 in NE 1.0 mph 7.0 mph 50 % 0.00 in
20:09 32.7 °F 16.2 °F 30.63 in North 2.0 mph 7.0 mph 50 % 0.00 in
20:14 32.7 °F 16.2 °F 30.63 in NNW 2.0 mph 7.0 mph 50 % 0.00 in
20:15 32.7 °F 16.2 °F 30.63 in North 3.0 mph 6.0 mph 50 % 0.00 in
20:19 32.5 °F 16.0 °F 30.63 in NE 3.0 mph 6.0 mph 50 % 0.00 in
20:25 32.5 °F 15.4 °F 30.63 in NW 1.0 mph 6.0 mph 49 % 0.00 in
20:28 32.4 °F 15.8 °F 30.63 in Calm   6.0 mph 50 % 0.00 in
20:30 32.4 °F 15.3 °F 30.63 in NNE 4.0 mph 6.0 mph 49 % 0.00 in
20:33 32.4 °F 15.3 °F 30.63 in East 2.0 mph 6.0 mph 49 % 0.00 in
20:38 32.2 °F 15.1 °F 30.63 in ENE 2.0 mph 8.0 mph 49 % 0.00 in
20:42 32.2 °F 15.1 °F 30.63 in NW 1.0 mph 8.0 mph 49 % 0.00 in
20:47 32.0 °F 15.4 °F 30.64 in NNW 2.0 mph 8.0 mph 50 % 0.00 in
20:50 32.0 °F 15.4 °F 30.64 in NNE 1.0 mph 6.0 mph 50 % 0.00 in
20:52 31.8 °F 15.3 °F 30.64 in NW 2.0 mph 6.0 mph 50 % 0.00 in
20:57 31.6 °F 15.1 °F 30.64 in Calm   6.0 mph 50 % 0.00 in
20:59 31.6 °F 15.1 °F 30.64 in NE 2.0 mph 6.0 mph 50 % 0.00 in
21:03 31.6 °F 15.1 °F 30.63 in NE 1.0 mph 7.0 mph 50 % 0.00 in
21:06 31.6 °F 15.1 °F 30.63 in Calm   7.0 mph 50 % 0.00 in
21:11 31.5 °F 15.4 °F 30.63 in NW 2.0 mph 7.0 mph 51 % 0.00 in
21:17 31.5 °F 15.4 °F 30.63 in Calm   7.0 mph 51 % 0.00 in
21:27 31.1 °F 15.1 °F 30.63 in Calm   7.0 mph 51 % 0.00 in
21:29 31.1 °F 15.4 °F 30.63 in ENE 1.0 mph 7.0 mph 52 % 0.00 in
21:34 30.9 °F 15.4 °F 30.63 in Calm   6.0 mph 52 % 0.00 in
21:41 30.9 °F 14.9 °F 30.63 in Calm   5.0 mph 51 % 0.00 in
21:48 30.9 °F 15.4 °F 30.63 in North 2.0 mph 5.0 mph 52 % 0.00 in
21:53 30.9 °F 14.9 °F 30.63 in NE 1.0 mph 5.0 mph 51 % 0.00 in
22:00 30.9 °F 14.9 °F 30.63 in NE 2.0 mph 6.0 mph 51 % 0.00 in
22:05 30.9 °F 14.9 °F 30.63 in North 1.0 mph 6.0 mph 51 % 0.00 in
22:06 30.9 °F 14.9 °F 30.63 in East 1.0 mph 6.0 mph 51 % 0.00 in
22:11 30.9 °F 14.5 °F 30.63 in North 3.0 mph 6.0 mph 50 % 0.00 in
22:13 31.1 °F 14.5 °F 30.63 in Calm   6.0 mph 50 % 0.00 in
22:14 31.1 °F 15.1 °F 30.63 in Calm   6.0 mph 51 % 0.00 in
22:24 31.1 °F 14.5 °F 30.64 in North 2.0 mph 6.0 mph 50 % 0.00 in
22:27 31.1 °F 14.5 °F 30.64 in NNW 1.0 mph 8.0 mph 50 % 0.00 in
22:28 31.1 °F 14.5 °F 30.64 in NW 1.0 mph 8.0 mph 50 % 0.00 in
22:37 31.1 °F 15.1 °F 30.64 in NW 1.0 mph 8.0 mph 51 % 0.00 in
22:41 31.1 °F 15.1 °F 30.64 in NNW 1.0 mph 8.0 mph 51 % 0.00 in
22:46 31.1 °F 15.1 °F 30.64 in NE 1.0 mph 8.0 mph 51 % 0.00 in
22:51 30.9 °F 14.9 °F 30.64 in NE 2.0 mph 8.0 mph 51 % 0.00 in
22:56 30.9 °F 14.9 °F 30.64 in NNW 2.0 mph 8.0 mph 51 % 0.00 in
23:01 30.9 °F 14.9 °F 30.64 in NNW 2.0 mph 8.0 mph 51 % 0.00 in
23:04 30.9 °F 14.9 °F 30.64 in East 1.0 mph 8.0 mph 51 % 0.00 in
23:06 30.9 °F 15.4 °F 30.64 in North 2.0 mph 5.0 mph 52 % 0.00 in
23:10 30.9 °F 14.9 °F 30.64 in ENE 1.0 mph 6.0 mph 51 % 0.00 in
23:11 30.9 °F 14.9 °F 30.64 in Calm   6.0 mph 51 % 0.00 in
23:16 30.9 °F 14.9 °F 30.65 in Calm   6.0 mph 51 % 0.00 in
23:22 30.9 °F 14.9 °F 30.65 in NE 1.0 mph 6.0 mph 51 % 0.00 in
23:23 30.9 °F 14.9 °F 30.65 in NNW 2.0 mph 6.0 mph 51 % 0.00 in
23:27 30.7 °F 14.7 °F 30.64 in Calm   8.0 mph 51 % 0.00 in
23:30 30.7 °F 14.7 °F 30.64 in Calm   8.0 mph 51 % 0.00 in
23:34 30.7 °F 14.4 °F 30.64 in Calm   8.0 mph 50 % 0.00 in
23:39 30.6 °F 14.5 °F 30.64 in NNW 1.0 mph 8.0 mph 51 % 0.00 in
23:41 30.6 °F 14.5 °F 30.63 in ENE 4.0 mph 8.0 mph 51 % 0.00 in
23:46 30.6 °F 14.5 °F 30.63 in ENE 4.0 mph 8.0 mph 51 % 0.00 in
23:51 30.6 °F 14.5 °F 30.63 in NNW 2.0 mph 8.0 mph 51 % 0.00 in
23:56 30.6 °F 15.1 °F 30.63 in North 1.0 mph 7.0 mph 52 % 0.00 in
23:58 30.6 °F 15.1 °F 30.63 in NE 2.0 mph 7.0 mph 52 % 0.00 in
Spring, Texas: Villages of Bridgestone
Compliments of Weather Underground - 3.5 mb

Script developed by  Jim McMurry - jmcmurry@mwt.net Adapted for the template by  Wim van der Kuil - Leuven-Template.eu

You find our weather info also at:

UK Metoffice

WeatherCloud

Weather Underground

Mid-South Weather Network

AWEKAS

Citizen Weather Observer Program (CWOP)

HAMweather, WeatherForYou, PWS Weather

Equipment we use:

Weather-station
Davis Vantage Vue

Weather-program
Meteohub

Weather-server
Debian 7.9 x86 (Guest)

Provider
DreamHost

Davis Vantage Vue

Meteohub

Debian 7.9 x86 (Guest)

DreamHost